createdAt,value
2023-04-22T00:00:32.485Z,12.77
2023-04-22T00:03:02.108Z,12.70
2023-04-22T00:05:31.749Z,11.53
2023-04-22T00:07:59.904Z,12.13
2023-04-22T00:10:28.420Z,11.77
2023-04-22T00:12:56.438Z,12.50
2023-04-22T00:15:25.559Z,14.07
2023-04-22T00:17:54.029Z,13.77
2023-04-22T00:20:22.828Z,12.40
2023-04-22T00:22:52.485Z,13.37
2023-04-22T00:25:20.647Z,11.83
2023-04-22T00:27:48.713Z,11.40
2023-04-22T00:30:16.833Z,11.83
2023-04-22T00:32:45.046Z,11.50
2023-04-22T00:35:13.118Z,12.30
2023-04-22T00:37:41.449Z,12.20
2023-04-22T00:40:11.926Z,12.83
2023-04-22T00:42:40.521Z,13.03
2023-04-22T00:45:12.847Z,13.07
2023-04-22T00:47:41.426Z,13.47
2023-04-22T00:50:10.113Z,11.43
2023-04-22T00:52:38.211Z,11.60
2023-04-22T00:55:07.104Z,11.83
2023-04-22T00:57:37.211Z,12.87
2023-04-22T01:00:06.266Z,13.50
2023-04-22T01:02:34.688Z,14.70
2023-04-22T01:05:04.075Z,13.80
2023-04-22T01:07:32.079Z,12.20
2023-04-22T01:10:00.764Z,11.50
2023-04-22T01:12:28.837Z,13.00
2023-04-22T01:14:58.494Z,12.63
2023-04-22T01:17:26.653Z,12.77
2023-04-22T01:19:55.724Z,13.17
2023-04-22T01:22:27.404Z,14.83
2023-04-22T01:24:56.954Z,12.73
2023-04-22T01:27:25.023Z,11.00
2023-04-22T01:29:53.628Z,12.20
2023-04-22T01:32:21.822Z,14.07
2023-04-22T01:34:50.427Z,14.60
2023-04-22T01:37:20.039Z,13.93
2023-04-22T01:39:48.927Z,14.40
2023-04-22T01:42:18.804Z,13.77
2023-04-22T01:44:47.299Z,12.97
2023-04-22T01:47:15.808Z,12.27
2023-04-22T01:49:43.880Z,13.00
2023-04-22T01:52:13.897Z,13.53
2023-04-22T01:54:42.420Z,11.97
2023-04-22T01:57:16.406Z,12.87
2023-04-22T01:59:46.366Z,12.63
2023-04-22T02:02:16.184Z,12.00
2023-04-22T02:04:44.378Z,12.23
2023-04-22T02:07:12.495Z,12.07
2023-04-22T02:09:40.737Z,11.57
2023-04-22T02:12:09.190Z,11.03
2023-04-22T02:14:37.225Z,12.23
2023-04-22T02:17:06.687Z,10.80
2023-04-22T02:19:34.795Z,10.30
2023-04-22T02:22:03.015Z,9.93
2023-04-22T02:24:31.619Z,10.03
2023-04-22T02:27:00.332Z,10.17
2023-04-22T02:29:29.397Z,10.67
2023-04-22T02:31:59.980Z,10.70
2023-04-22T02:34:29.686Z,10.70
2023-04-22T02:36:57.730Z,9.83
2023-04-22T02:39:26.545Z,10.53
2023-04-22T02:41:54.688Z,11.00
2023-04-22T02:44:22.850Z,10.97
2023-04-22T02:46:50.943Z,10.23
2023-04-22T02:49:19.415Z,11.87
2023-04-22T02:51:48.822Z,11.80
2023-04-22T02:54:16.975Z,17.23
2023-04-22T02:56:45.031Z,18.33
2023-04-22T02:59:13.020Z,19.97
2023-04-22T03:01:41.206Z,19.10
2023-04-22T03:04:14.387Z,17.50
2023-04-22T03:06:42.768Z,18.03
2023-04-22T03:09:12.345Z,20.60
2023-04-22T03:11:40.506Z,20.63
2023-04-22T03:14:08.514Z,15.50
2023-04-22T03:16:36.700Z,14.40
2023-04-22T03:19:06.651Z,13.47
2023-04-22T03:21:34.738Z,13.57
2023-04-22T03:24:03.415Z,13.80
2023-04-22T03:26:35.702Z,13.27
2023-04-22T03:29:05.043Z,13.60
2023-04-22T03:31:33.229Z,13.40
2023-04-22T03:34:01.377Z,14.80
2023-04-22T03:36:32.089Z,13.10
2023-04-22T03:39:00.202Z,13.67
2023-04-22T03:41:29.863Z,11.67
2023-04-22T03:44:01.620Z,11.67
2023-04-22T03:46:31.470Z,10.30
2023-04-22T03:49:13.548Z,9.70
2023-04-22T03:51:41.777Z,10.40
2023-04-22T03:54:13.894Z,11.27
2023-04-22T03:56:48.486Z,12.87
2023-04-22T03:59:19.010Z,12.37
2023-04-22T04:01:48.255Z,11.70
2023-04-22T04:04:20.550Z,10.63
2023-04-22T04:06:54.225Z,11.10
2023-04-22T04:09:22.461Z,11.53
2023-04-22T04:11:50.473Z,12.30
2023-04-22T04:14:20.611Z,12.03
2023-04-22T04:16:51.467Z,13.33
2023-04-22T04:19:28.489Z,15.67
2023-04-22T04:21:57.158Z,13.97
2023-04-22T04:24:28.432Z,13.23
2023-04-22T04:27:03.281Z,12.80
2023-04-22T04:29:39.838Z,11.37
2023-04-22T04:32:14.307Z,12.30
2023-04-22T04:34:43.750Z,11.03
2023-04-22T04:37:12.774Z,10.97
2023-04-22T04:40:04.605Z,11.33
2023-04-22T04:42:43.804Z,10.50
2023-04-22T04:45:19.320Z,9.30
2023-04-22T04:47:50.826Z,9.10
2023-04-22T04:50:24.123Z,9.30
2023-04-22T04:52:53.009Z,11.20
2023-04-22T04:55:26.590Z,11.70
2023-04-22T04:57:55.588Z,12.30
2023-04-22T05:00:25.261Z,13.70
2023-04-22T05:02:53.717Z,14.00
2023-04-22T05:05:21.849Z,13.70
2023-04-22T05:07:51.768Z,13.90
2023-04-22T05:10:20.342Z,12.83
2023-04-22T05:12:48.747Z,12.73
2023-04-22T05:15:22.054Z,12.77
2023-04-22T05:17:51.612Z,12.30
2023-04-22T05:20:19.724Z,13.10
2023-04-22T05:22:47.861Z,13.53
2023-04-22T05:25:16.961Z,13.10
2023-04-22T05:27:54.121Z,12.03
2023-04-22T05:30:23.120Z,12.37
2023-04-22T05:32:52.494Z,11.73
2023-04-22T05:35:20.782Z,13.03
2023-04-22T05:37:48.875Z,12.90
2023-04-22T05:40:17.036Z,13.63
2023-04-22T05:42:45.190Z,12.93
2023-04-22T05:45:13.587Z,13.60
2023-04-22T05:47:41.765Z,12.67
2023-04-22T05:50:11.953Z,13.97
2023-04-22T05:52:55.542Z,12.90
2023-04-22T05:55:23.669Z,13.57
2023-04-22T05:57:51.874Z,12.17
2023-04-22T06:00:38.034Z,12.63
2023-04-22T06:03:26.581Z,12.93
2023-04-22T06:05:56.384Z,12.33
2023-04-22T06:08:24.801Z,13.20
2023-04-22T06:10:52.791Z,12.87
2023-04-22T06:13:22.083Z,12.67
2023-04-22T06:15:50.489Z,13.30
2023-04-22T06:18:18.654Z,13.37
2023-04-22T06:20:47.039Z,13.63
2023-04-22T06:23:16.575Z,14.23
2023-04-22T06:25:44.862Z,14.80
2023-04-22T06:28:13.040Z,13.83
2023-04-22T06:30:41.976Z,14.40
2023-04-22T06:33:10.154Z,13.20
2023-04-22T06:35:38.664Z,13.97
2023-04-22T06:38:06.907Z,14.10
2023-04-22T06:40:44.104Z,15.97
2023-04-22T06:43:22.458Z,16.20
2023-04-22T06:46:11.217Z,16.17
2023-04-22T06:48:58.184Z,15.67
2023-04-22T06:51:46.582Z,20.50
2023-04-22T06:54:14.901Z,15.43
2023-04-22T06:56:44.468Z,17.40
2023-04-22T06:59:12.595Z,17.30
2023-04-22T07:01:41.075Z,17.27
2023-04-22T07:04:09.292Z,17.10
2023-04-22T07:06:37.430Z,18.77
2023-04-22T07:09:05.605Z,18.60
2023-04-22T07:11:34.225Z,18.00
2023-04-22T07:14:11.992Z,18.03
2023-04-22T07:16:40.218Z,16.90
2023-04-22T07:19:08.272Z,17.33
2023-04-22T07:21:36.404Z,17.80
2023-04-22T07:24:04.457Z,17.30
2023-04-22T07:26:34.484Z,17.00
2023-04-22T07:29:02.595Z,17.00
2023-04-22T07:31:32.054Z,17.13
2023-04-22T07:34:00.135Z,17.60
2023-04-22T07:36:28.191Z,16.23
2023-04-22T07:38:56.406Z,16.38
2023-04-22T07:41:24.656Z,16.15
2023-04-22T07:43:52.989Z,15.10
2023-04-22T07:46:21.269Z,15.35
2023-04-22T07:48:50.733Z,15.32
2023-04-22T07:51:18.783Z,15.27
2023-04-22T07:53:46.863Z,15.57
2023-04-22T07:56:15.056Z,15.00
2023-04-22T07:58:43.093Z,15.43
2023-04-22T08:01:11.141Z,15.23
2023-04-22T08:03:39.395Z,14.80
2023-04-22T08:06:09.281Z,16.25
2023-04-22T08:08:37.390Z,15.80
2023-04-22T08:11:05.838Z,15.77
2023-04-22T08:13:33.907Z,14.40
2023-04-22T08:16:03.228Z,14.18
2023-04-22T08:18:31.421Z,15.05
2023-04-22T08:20:59.861Z,11.88
2023-04-22T08:23:29.225Z,13.48
2023-04-22T08:25:57.352Z,13.48
2023-04-22T08:28:25.447Z,14.80
2023-04-22T08:30:53.582Z,13.95
2023-04-22T08:33:21.692Z,15.15
2023-04-22T08:35:49.811Z,13.63
2023-04-22T08:38:17.833Z,11.57
2023-04-22T08:40:47.849Z,11.20
2023-04-22T08:43:16.236Z,15.18
2023-04-22T08:45:44.487Z,13.07
2023-04-22T08:48:13.865Z,10.20
2023-04-22T08:50:42.511Z,10.93
2023-04-22T08:53:10.607Z,13.95
2023-04-22T08:55:39.295Z,13.77
2023-04-22T08:58:08.914Z,12.88
2023-04-22T09:00:37.014Z,20.55
2023-04-22T09:03:07.945Z,12.65
2023-04-22T09:05:38.605Z,10.57
2023-04-22T09:08:07.914Z,11.65
2023-04-22T09:10:38.523Z,8.02
2023-04-22T09:13:09.364Z,7.53
2023-04-22T09:15:37.550Z,7.10
2023-04-22T09:18:06.114Z,7.65
2023-04-22T09:20:34.108Z,6.97
2023-04-22T09:23:05.506Z,7.93
2023-04-22T09:25:35.667Z,7.40
2023-04-22T09:28:03.692Z,6.90
2023-04-22T09:30:35.937Z,7.63
2023-04-22T09:33:06.009Z,6.90
2023-04-22T09:35:35.410Z,6.90
2023-04-22T09:38:06.395Z,7.00
2023-04-22T09:40:35.061Z,6.00
2023-04-22T09:43:04.886Z,7.13
2023-04-22T09:45:36.538Z,7.22
2023-04-22T09:48:09.847Z,6.28
2023-04-22T09:50:39.104Z,6.07
2023-04-22T09:53:09.053Z,6.57
2023-04-22T09:55:41.439Z,5.75
2023-04-22T09:58:12.316Z,5.75
2023-04-22T10:00:48.785Z,6.05
2023-04-22T10:03:17.905Z,6.03
2023-04-22T10:05:46.468Z,6.32
2023-04-22T10:08:16.921Z,5.35
2023-04-22T10:10:47.419Z,6.65
2023-04-22T10:13:15.880Z,6.18
2023-04-22T10:15:50.641Z,6.47
2023-04-22T10:18:22.902Z,5.93
2023-04-22T10:20:52.349Z,6.50
2023-04-22T10:23:23.637Z,5.88
2023-04-22T10:25:55.049Z,7.60
2023-04-22T10:28:24.895Z,7.05
2023-04-22T10:30:55.110Z,7.25
2023-04-22T10:33:40.113Z,7.40
2023-04-22T10:36:10.832Z,7.22
2023-04-22T10:38:40.627Z,6.35
2023-04-22T10:41:14.354Z,6.85
2023-04-22T10:43:43.334Z,6.28
2023-04-22T10:46:53.190Z,5.40
2023-04-22T10:49:24.495Z,7.93
2023-04-22T10:51:53.893Z,5.40
2023-04-22T10:55:00.688Z,5.80
2023-04-22T10:57:42.930Z,6.03
2023-04-22T11:03:11.980Z,6.15
2023-04-22T11:05:42.099Z,6.95
2023-04-22T11:08:14.376Z,6.63
2023-04-22T11:10:45.038Z,6.65
2023-04-22T11:13:15.996Z,6.53
2023-04-22T11:15:45.947Z,6.95
2023-04-22T11:18:20.869Z,7.00
2023-04-22T11:20:51.427Z,7.18
2023-04-22T11:23:22.163Z,6.50
2023-04-22T11:25:55.905Z,6.95
2023-04-22T11:28:24.284Z,7.13
2023-04-22T11:30:52.785Z,9.73
2023-04-22T11:33:21.717Z,7.20
2023-04-22T11:35:52.694Z,7.18
2023-04-22T11:38:20.666Z,7.57
2023-04-22T11:40:49.115Z,6.97
2023-04-22T11:43:18.726Z,7.38
2023-04-22T11:45:47.171Z,8.18
2023-04-22T11:48:16.717Z,8.05
2023-04-22T11:50:45.580Z,7.95
2023-04-22T11:53:19.478Z,8.00
2023-04-22T11:55:51.327Z,7.82
2023-04-22T11:58:21.557Z,9.25
2023-04-22T12:00:51.657Z,7.72
2023-04-22T12:03:21.353Z,7.57
2023-04-22T12:05:54.290Z,7.18
2023-04-22T12:08:26.100Z,6.85
2023-04-22T12:10:55.976Z,9.82
2023-04-22T12:13:25.986Z,9.45
2023-04-22T12:15:55.655Z,7.95
2023-04-22T12:18:30.781Z,8.00
2023-04-22T12:21:01.218Z,8.05
2023-04-22T12:23:30.610Z,7.57
2023-04-22T12:25:58.864Z,7.70
2023-04-22T12:28:26.863Z,7.60
2023-04-22T12:30:54.990Z,7.50
2023-04-22T12:33:23.073Z,7.78
2023-04-22T12:35:52.705Z,7.90
2023-04-22T12:38:21.294Z,6.97
2023-04-22T12:40:51.130Z,7.53
2023-04-22T12:43:26.091Z,8.85
2023-04-22T12:45:54.264Z,8.48
2023-04-22T12:48:22.299Z,6.90
2023-04-22T12:50:50.346Z,7.40
2023-04-22T12:53:18.467Z,6.93
2023-04-22T12:55:46.596Z,7.03
2023-04-22T12:58:16.152Z,6.22
2023-04-22T13:00:44.281Z,6.68
2023-04-22T13:03:12.552Z,6.80
2023-04-22T13:05:40.818Z,6.78
2023-04-22T13:08:08.893Z,6.32
2023-04-22T13:10:37.087Z,7.40
2023-04-22T13:13:17.755Z,5.95
2023-04-22T13:15:53.341Z,6.35
2023-04-22T13:18:22.851Z,7.20
2023-04-22T13:20:51.329Z,6.47
2023-04-22T13:23:21.857Z,6.88
2023-04-22T13:25:50.667Z,6.32
2023-04-22T13:28:18.676Z,6.03
2023-04-22T13:30:48.406Z,6.18
2023-04-22T13:33:16.476Z,6.30
2023-04-22T13:35:44.597Z,6.18
2023-04-22T13:38:12.640Z,6.68
2023-04-22T13:40:40.810Z,6.47
2023-04-22T13:43:09.813Z,6.13
2023-04-22T13:45:38.142Z,6.32
2023-04-22T13:48:07.757Z,6.13
2023-04-22T13:50:35.835Z,8.23
2023-04-22T13:53:04.917Z,6.28
2023-04-22T13:55:33.006Z,6.38
2023-04-22T13:58:01.274Z,6.38
2023-04-22T14:00:29.711Z,6.32
2023-04-22T14:02:58.107Z,9.38
2023-04-22T14:05:27.865Z,6.55
2023-04-22T14:07:55.955Z,6.50
2023-04-22T14:10:25.612Z,5.82
2023-04-22T14:12:55.371Z,5.80
2023-04-22T14:15:23.391Z,6.28
2023-04-22T14:17:51.394Z,5.97
2023-04-22T14:20:19.633Z,5.93
2023-04-22T14:22:49.063Z,5.70
2023-04-22T14:25:17.169Z,6.32
2023-04-22T14:27:45.191Z,6.18
2023-04-22T14:30:14.808Z,6.45
2023-04-22T14:32:42.962Z,6.13
2023-04-22T14:35:11.683Z,5.95
2023-04-22T14:37:41.490Z,5.97
2023-04-22T14:40:13.273Z,7.68
2023-04-22T14:42:42.118Z,6.28
2023-04-22T14:45:11.034Z,6.28
2023-04-22T14:47:39.269Z,6.55
2023-04-22T14:50:08.247Z,6.93
2023-04-22T14:52:36.397Z,6.55
2023-04-22T14:55:15.535Z,6.85
2023-04-22T14:57:53.348Z,6.68
2023-04-22T15:00:21.895Z,6.88
2023-04-22T15:02:50.331Z,6.07
2023-04-22T15:05:18.546Z,6.00
2023-04-22T15:07:46.661Z,6.10
2023-04-22T15:10:16.813Z,7.00
2023-04-22T15:12:45.638Z,5.85
2023-04-22T15:15:16.223Z,6.28
2023-04-22T15:17:44.987Z,7.03
2023-04-22T15:20:14.255Z,5.90
2023-04-22T15:22:42.435Z,5.80
2023-04-22T15:25:11.581Z,5.93
2023-04-22T15:27:40.499Z,5.70
2023-04-22T15:30:10.918Z,5.60
2023-04-22T15:32:40.790Z,5.72
2023-04-22T15:35:09.675Z,5.68
2023-04-22T15:37:37.830Z,5.68
2023-04-22T15:40:07.730Z,5.95
2023-04-22T15:42:36.055Z,5.80
2023-04-22T15:45:04.508Z,5.38
2023-04-22T15:47:32.816Z,5.63
2023-04-22T15:50:06.630Z,6.85
2023-04-22T15:52:35.012Z,6.18
2023-04-22T15:55:03.087Z,6.63
2023-04-22T15:57:34.752Z,5.85
2023-04-22T16:00:11.733Z,5.85
2023-04-22T16:02:43.710Z,6.22
2023-04-22T16:05:14.693Z,6.72
2023-04-22T16:07:43.085Z,7.18
2023-04-22T16:10:12.113Z,5.40
2023-04-22T16:12:40.183Z,5.60
2023-04-22T16:15:09.672Z,8.77
2023-04-22T16:17:38.396Z,6.65
2023-04-22T16:20:07.916Z,7.30
2023-04-22T16:22:37.524Z,6.78
2023-04-22T16:25:06.515Z,10.52
2023-04-22T16:27:34.588Z,7.07
2023-04-22T16:30:02.701Z,5.78
2023-04-22T16:32:30.947Z,5.68
2023-04-22T16:34:59.074Z,5.38
2023-04-22T16:37:27.368Z,5.40
2023-04-22T16:39:56.774Z,5.32
2023-04-22T16:42:24.927Z,5.88
2023-04-22T16:44:57.915Z,6.35
2023-04-22T16:47:27.055Z,5.78
2023-04-22T16:49:55.168Z,7.70
2023-04-22T16:52:23.194Z,5.93
2023-04-22T16:54:51.584Z,6.13
2023-04-22T16:57:21.047Z,5.90
2023-04-22T16:59:49.164Z,6.70
2023-04-22T17:02:17.328Z,6.95
2023-04-22T17:04:45.491Z,9.23
2023-04-22T17:07:13.513Z,6.53
2023-04-22T17:09:41.884Z,9.20
2023-04-22T17:12:10.602Z,6.72
2023-04-22T17:14:40.164Z,6.78
2023-04-22T17:17:08.285Z,6.68
2023-04-22T17:19:36.540Z,8.07
2023-04-22T17:22:04.718Z,8.40
2023-04-22T17:24:32.810Z,8.25
2023-04-22T17:27:01.738Z,8.15
2023-04-22T17:29:29.754Z,11.40
2023-04-22T17:31:59.213Z,76.72
2023-04-22T17:34:27.949Z,8.70
2023-04-22T17:36:55.933Z,9.10
2023-04-22T17:39:24.141Z,11.77
2023-04-22T17:41:52.265Z,10.48
2023-04-22T17:44:20.517Z,7.93
2023-04-22T17:46:48.581Z,11.02
2023-04-22T17:49:17.995Z,9.30
2023-04-22T17:51:46.148Z,9.20
2023-04-22T17:54:14.256Z,11.00
2023-04-22T17:56:42.358Z,10.32
2023-04-22T17:59:11.408Z,10.55
2023-04-22T18:01:39.981Z,12.40
2023-04-22T18:04:08.311Z,11.45
2023-04-22T18:06:38.033Z,14.73
2023-04-22T18:09:06.281Z,9.30
2023-04-22T18:11:34.330Z,11.15
2023-04-22T18:14:02.540Z,8.70
2023-04-22T18:16:30.722Z,10.73
2023-04-22T18:18:59.856Z,9.77
2023-04-22T18:21:29.374Z,12.98
2023-04-22T18:23:59.230Z,10.57
2023-04-22T18:26:27.540Z,9.45
2023-04-22T18:28:55.609Z,12.77
2023-04-22T18:31:23.782Z,12.73
2023-04-22T18:33:51.800Z,9.50
2023-04-22T18:36:19.970Z,11.73
2023-04-22T18:38:48.044Z,11.70
2023-04-22T18:41:17.462Z,13.75
2023-04-22T18:43:47.168Z,14.90
2023-04-22T18:46:15.301Z,15.95
2023-04-22T18:48:43.586Z,17.35
2023-04-22T18:51:12.388Z,17.98
2023-04-22T18:53:40.423Z,16.42
2023-04-22T18:56:08.519Z,17.02
2023-04-22T18:58:37.927Z,18.23
2023-04-22T19:01:06.559Z,16.75
2023-04-22T19:03:34.827Z,18.02
2023-04-22T19:06:02.963Z,20.83
2023-04-22T19:08:31.115Z,17.63
2023-04-22T19:10:59.422Z,22.30
2023-04-22T19:13:29.582Z,19.27
2023-04-22T19:16:00.007Z,20.95
2023-04-22T19:18:28.292Z,17.73
2023-04-22T19:20:56.324Z,16.58
2023-04-22T19:23:24.407Z,16.55
2023-04-22T19:25:53.217Z,15.40
2023-04-22T19:28:21.332Z,18.48
2023-04-22T19:30:49.389Z,15.40
2023-04-22T19:33:19.074Z,16.17
2023-04-22T19:35:47.324Z,14.23
2023-04-22T19:38:19.071Z,14.33
2023-04-22T19:40:47.459Z,14.52
2023-04-22T19:43:17.162Z,14.87
2023-04-22T19:45:45.503Z,13.73
2023-04-22T19:48:14.020Z,12.80
2023-04-22T19:50:44.854Z,13.43
2023-04-22T19:53:13.868Z,13.57
2023-04-22T19:55:44.204Z,12.43
2023-04-22T19:58:12.425Z,14.02
2023-04-22T20:00:42.554Z,12.63
2023-04-22T20:03:13.112Z,12.57
2023-04-22T20:05:44.317Z,13.13
2023-04-22T20:08:14.750Z,12.53
2023-04-22T20:10:44.363Z,14.10
2023-04-22T20:13:12.494Z,13.87
2023-04-22T20:15:40.856Z,14.00
2023-04-22T20:18:09.553Z,14.60
2023-04-22T20:20:38.854Z,16.00
2023-04-22T20:23:10.569Z,19.90
2023-04-22T20:25:42.650Z,17.67
2023-04-22T20:28:11.934Z,16.57
2023-04-22T20:30:40.929Z,16.03
2023-04-22T20:33:12.204Z,15.90
2023-04-22T20:35:41.166Z,17.07
2023-04-22T20:38:13.436Z,16.57
2023-04-22T20:40:42.212Z,16.17
2023-04-22T20:43:10.796Z,16.03
2023-04-22T20:45:39.040Z,16.23
2023-04-22T20:48:07.178Z,15.70
2023-04-22T20:50:35.309Z,15.47
2023-04-22T20:53:05.249Z,16.17
2023-04-22T20:55:36.858Z,19.40
2023-04-22T20:58:05.380Z,17.27
2023-04-22T21:00:33.504Z,17.13
2023-04-22T21:03:02.496Z,18.60
2023-04-22T21:05:30.884Z,18.60
2023-04-22T21:08:01.836Z,17.60
2023-04-22T21:10:30.775Z,17.57
2023-04-22T21:13:00.488Z,18.70
2023-04-22T21:15:29.605Z,18.50
2023-04-22T21:17:59.585Z,16.70
2023-04-22T21:20:30.879Z,17.70
2023-04-22T21:22:59.766Z,17.07
2023-04-22T21:25:30.000Z,18.90
2023-04-22T21:27:58.658Z,18.90
2023-04-22T21:30:28.732Z,18.93
2023-04-22T21:32:56.813Z,19.73
2023-04-22T21:35:25.664Z,18.97
2023-04-22T21:37:54.184Z,17.53
2023-04-22T21:40:22.350Z,19.07
2023-04-22T21:42:50.573Z,18.87
2023-04-22T21:45:18.797Z,19.70
2023-04-22T21:47:48.418Z,19.37
2023-04-22T21:50:17.254Z,20.90
2023-04-22T21:52:46.136Z,20.40
2023-04-22T21:55:14.177Z,19.40
2023-04-22T21:57:42.226Z,20.17
2023-04-22T22:00:15.479Z,19.70
2023-04-22T22:02:43.859Z,23.57
2023-04-22T22:05:14.921Z,19.70
2023-04-22T22:07:45.142Z,20.57
2023-04-22T22:10:15.413Z,20.87
2023-04-22T22:12:43.531Z,19.63
2023-04-22T22:15:12.579Z,21.93
2023-04-22T22:17:40.730Z,20.13
2023-04-22T22:20:12.260Z,19.07
2023-04-22T22:22:42.198Z,19.10
2023-04-22T22:25:11.981Z,19.47
2023-04-22T22:27:41.842Z,20.40
2023-04-22T22:30:10.687Z,19.77
2023-04-22T22:32:38.837Z,21.17
2023-04-22T22:35:07.980Z,21.67
2023-04-22T22:37:36.492Z,20.93
2023-04-22T22:40:07.166Z,20.60
2023-04-22T22:42:36.196Z,21.77
2023-04-22T22:45:05.281Z,18.87
2023-04-22T22:47:33.604Z,18.30
2023-04-22T22:50:01.778Z,17.70
2023-04-22T22:52:30.794Z,18.57
2023-04-22T22:54:58.832Z,16.93
2023-04-22T22:57:28.272Z,16.50
2023-04-22T22:59:56.303Z,18.80
2023-04-22T23:02:24.546Z,17.40
2023-04-22T23:04:53.968Z,17.70
2023-04-22T23:07:22.449Z,20.57
2023-04-22T23:09:50.558Z,16.80
2023-04-22T23:12:18.597Z,17.20
2023-04-22T23:14:48.012Z,17.10
2023-04-22T23:17:17.394Z,17.03
2023-04-22T23:19:46.463Z,16.60
2023-04-22T23:22:15.362Z,17.53
2023-04-22T23:24:44.005Z,16.73
2023-04-22T23:27:12.572Z,18.50
2023-04-22T23:29:42.199Z,17.33
2023-04-22T23:32:16.317Z,17.53
2023-04-22T23:34:47.019Z,18.27
2023-04-22T23:37:16.287Z,17.73
2023-04-22T23:39:44.464Z,19.00
2023-04-22T23:42:12.528Z,19.23
2023-04-22T23:44:40.668Z,18.23
2023-04-22T23:47:08.865Z,17.80
2023-04-22T23:49:38.365Z,18.47
2023-04-22T23:52:08.050Z,19.10
2023-04-22T23:54:36.534Z,18.33
2023-04-22T23:57:05.098Z,17.83
2023-04-22T23:59:33.833Z,19.27
